WXM80 ListenWXM80 Stop

You find our weather info also at:

UK Metoffice

WeatherCloud

Weather Underground

Northeastern Weather Network

AWEKAS

Citizen Weather Observer Program (CWOP)

HAMweather, WeatherForYou, PWS Weather


Weather Underground History page Text

Daily Summary for January 15, 2017 Units:  Metric    English   Both
« Previous Day
Next Day »
Daily Weekly Monthly Yearly Custom
  High: Low: Average:
Temperature: 3.4 °C -2.6 °C 0.1 °C
Dew Point: -1.6 °C -4.6 °C -3.1 °C
Humidity: 94 % 62 % 80 %
Wind Speed: 9.7 km/h 0 km/h 2.9 km/h
Wind Gust: 17.7 km/h - -
Wind:- - WNW
Pressure: 1029 hPa 1023.9 hPa -
Precipitation: 0 mm    
Historical Graphs
 
 
Tabular Data for January 15, 2017
Time Temperature Dew Point Pressure Wind Wind Speed Wind Gust Humidity Rainfall Rate (Hourly)
00:00 -1.2 °C -2.2 °C 1025.3 hPa Calm     93 % 0 mm
00:05 -1.2 °C -2.2 °C 1025.3 hPa Calm     93 % 0 mm
00:10 -1.2 °C -2.2 °C 1025.3 hPa Calm     93 % 0 mm
00:15 -1.2 °C -2.2 °C 1024.9 hPa Calm     93 % 0 mm
00:20 -1.2 °C -2.2 °C 1024.9 hPa Calm   1.9 km/h 93 % 0 mm
00:26 -1.1 °C -2.1 °C 1024.9 hPa Calm     93 % 0 mm
00:31 -1.1 °C -2.1 °C 1024.9 hPa Calm     93 % 0 mm
00:36 -1.1 °C -2.1 °C 1024.9 hPa Calm     93 % 0 mm
00:41 -1.1 °C -1.9 °C 1024.9 hPa SSE 0.6 km/h 1.6 km/h 94 % 0 mm
00:46 -1 °C -1.8 °C 1024.9 hPa Calm     94 % 0 mm
00:51 -1 °C -1.8 °C 1024.6 hPa SSE 0.5 km/h 3.7 km/h 94 % 0 mm
00:56 -1 °C -1.8 °C 1024.6 hPa Calm   1.9 km/h 94 % 0 mm
01:01 -0.9 °C -1.8 °C 1024.6 hPa Calm   5.6 km/h 94 % 0 mm
01:06 -0.9 °C -1.8 °C 1024.6 hPa Calm     94 % 0 mm
01:11 -0.9 °C -1.8 °C 1024.3 hPa WSW 0.5 km/h 1.9 km/h 94 % 0 mm
01:16 -0.9 °C -1.7 °C 1024.3 hPa WSW 0.2 km/h 1.9 km/h 94 % 0 mm
01:21 -0.9 °C -1.9 °C 1024.3 hPa WSW 0.2 km/h 1.9 km/h 93 % 0 mm
01:26 -0.8 °C -1.7 °C 1024.3 hPa WSW 0.2 km/h 1.9 km/h 94 % 0 mm
01:31 -0.8 °C -1.7 °C 1024.3 hPa Calm   1.9 km/h 94 % 0 mm
01:36 -0.8 °C -1.6 °C 1024.3 hPa WSW 1 km/h 3.7 km/h 94 % 0 mm
01:42 -0.8 °C -1.6 °C 1024.3 hPa Calm     94 % 0 mm
01:47 -0.8 °C -1.6 °C 1024.3 hPa Calm     94 % 0 mm
01:52 -0.8 °C -1.6 °C 1024.3 hPa WSW 0.5 km/h 1.6 km/h 94 % 0 mm
01:57 -0.8 °C -1.8 °C 1024.3 hPa WSW 1 km/h   93 % 0 mm
02:02 -0.8 °C -1.7 °C 1024.3 hPa WSW 0.6 km/h   94 % 0 mm
02:07 -0.9 °C -1.9 °C 1024.3 hPa Calm     93 % 0 mm
02:12 -0.9 °C -1.9 °C 1024.3 hPa Calm     93 % 0 mm
02:17 -0.9 °C -1.9 °C 1024.3 hPa Calm     93 % 0 mm
02:22 -1 °C -2 °C 1024.3 hPa Calm     93 % 0 mm
02:27 -1 °C -2 °C 1024.3 hPa Calm     93 % 0 mm
02:32 -1.1 °C -2.1 °C 1024.3 hPa WSW 1.6 km/h 3.7 km/h 93 % 0 mm
02:37 -1.2 °C -2.2 °C 1023.9 hPa WSW 0.3 km/h 1.9 km/h 93 % 0 mm
02:42 -1.2 °C -2.2 °C 1024.3 hPa Calm   1.6 km/h 93 % 0 mm
02:47 -1.2 °C -2.2 °C 1024.3 hPa WSW 1.6 km/h 3.2 km/h 93 % 0 mm
02:52 -1.2 °C -2.2 °C 1024.3 hPa NNW 4.3 km/h 11.3 km/h 93 % 0 mm
02:57 -1.1 °C -2.1 °C 1024.3 hPa NW 5.5 km/h 13 km/h 93 % 0 mm
03:03 -0.9 °C -1.8 °C 1023.9 hPa WNW 4.7 km/h 16.7 km/h 94 % 0 mm
03:08 -0.9 °C -1.7 °C 1023.9 hPa West 5.6 km/h 11.1 km/h 94 % 0 mm
03:13 -0.7 °C -1.7 °C 1023.9 hPa NW 6.8 km/h 9.3 km/h 93 % 0 mm
03:18 -0.6 °C -1.6 °C 1023.9 hPa West 2.4 km/h 6.4 km/h 93 % 0 mm
03:23 -0.6 °C -1.6 °C 1023.9 hPa WNW 1.1 km/h 5.6 km/h 93 % 0 mm
03:28 -0.5 °C -1.7 °C 1023.9 hPa NW 6.4 km/h 11.1 km/h 92 % 0 mm
03:33 -0.5 °C -1.7 °C 1023.9 hPa NNW 6 km/h 9.7 km/h 92 % 0 mm
03:38 -0.4 °C -1.7 °C 1023.9 hPa West 1.3 km/h 7.4 km/h 91 % 0 mm
03:43 -0.5 °C -1.8 °C 1023.9 hPa NW 3.9 km/h 8 km/h 91 % 0 mm
03:48 -0.5 °C -1.9 °C 1023.9 hPa NNW 5.1 km/h 11.1 km/h 90 % 0 mm
03:53 -0.5 °C -1.9 °C 1023.9 hPa West 3.5 km/h 13 km/h 90 % 0 mm
03:58 -0.6 °C -2.2 °C 1023.9 hPa WNW 5.1 km/h 9.3 km/h 89 % 0 mm
04:03 -0.6 °C -2.2 °C 1023.9 hPa WNW 4.8 km/h 7.4 km/h 89 % 0 mm
04:08 -0.6 °C -2.2 °C 1023.9 hPa WNW 3.5 km/h 5.6 km/h 89 % 0 mm
04:13 -0.7 °C -2.3 °C 1023.9 hPa NW 2.4 km/h 5.6 km/h 89 % 0 mm
04:18 -0.7 °C -2.3 °C 1023.9 hPa NW 6 km/h 9.7 km/h 89 % 0 mm
04:23 -0.7 °C -2.3 °C 1024.3 hPa WNW 4.5 km/h 11.3 km/h 89 % 0 mm
04:29 -0.7 °C -2.3 °C 1023.9 hPa NW 4.7 km/h 9.3 km/h 89 % 0 mm
04:34 -0.8 °C -2.4 °C 1024.3 hPa NW 5 km/h 7.4 km/h 89 % 0 mm
04:39 -0.8 °C -2.4 °C 1024.3 hPa NW 2.9 km/h 5.6 km/h 89 % 0 mm
04:44 -0.8 °C -2.4 °C 1024.3 hPa WNW 4.2 km/h 4.8 km/h 89 % 0 mm
04:49 -0.8 °C -2.4 °C 1024.3 hPa WNW 1.3 km/h 5.6 km/h 89 % 0 mm
04:54 -0.8 °C -2.4 °C 1024.3 hPa NW 3.2 km/h 11.3 km/h 89 % 0 mm
04:59 -0.8 °C -2.4 °C 1024.3 hPa North 4.8 km/h 11.1 km/h 89 % 0 mm
05:04 -0.8 °C -2.6 °C 1024.3 hPa NNW 3.1 km/h 7.4 km/h 88 % 0 mm
05:09 -0.8 °C -2.6 °C 1024.3 hPa North 4.2 km/h 9.3 km/h 88 % 0 mm
05:14 -0.8 °C -2.6 °C 1024.3 hPa NW 4.3 km/h 7.4 km/h 88 % 0 mm
05:19 -0.9 °C -2.6 °C 1024.3 hPa NNW 4.2 km/h 7.4 km/h 88 % 0 mm
05:24 -0.9 °C -2.6 °C 1024.3 hPa NW 4.2 km/h 13 km/h 88 % 0 mm
05:29 -0.9 °C -2.6 °C 1024.3 hPa NNW 2.9 km/h 5.6 km/h 88 % 0 mm
05:34 -0.9 °C -2.7 °C 1024.3 hPa NW 2.7 km/h 9.3 km/h 88 % 0 mm
05:40 -0.9 °C -2.7 °C 1024.3 hPa NNW 1.6 km/h 5.6 km/h 88 % 0 mm
05:45 -1 °C -2.7 °C 1024.3 hPa NW 3.7 km/h 5.6 km/h 88 % 0 mm
05:50 -1 °C -2.7 °C 1024.3 hPa WNW 2.3 km/h 9.3 km/h 88 % 0 mm
05:55 -1.1 °C -2.8 °C 1024.6 hPa NW 1.8 km/h 7.4 km/h 88 % 0 mm
06:00 -1.1 °C -2.8 °C 1024.6 hPa NNW 3.1 km/h 5.6 km/h 88 % 0 mm
06:05 -1.1 °C -2.8 °C 1024.6 hPa NNW 4.3 km/h 8 km/h 88 % 0 mm
06:10 -1.1 °C -2.8 °C 1024.6 hPa NW 2.9 km/h 5.6 km/h 88 % 0 mm
06:15 -1.1 °C -2.8 °C 1024.6 hPa North 1.1 km/h 3.7 km/h 88 % 0 mm
06:20 -1.2 °C -2.9 °C 1024.6 hPa North 2.1 km/h 5.6 km/h 88 % 0 mm
06:25 -1.2 °C -2.9 °C 1024.9 hPa North 2.4 km/h 7.4 km/h 88 % 0 mm
06:30 -1.2 °C -2.9 °C 1024.9 hPa North 1.4 km/h 3.7 km/h 88 % 0 mm
06:35 -1.2 °C -2.9 °C 1024.9 hPa NNW 1.9 km/h 3.7 km/h 88 % 0 mm
06:40 -1.2 °C -2.9 °C 1024.9 hPa NNE 3.9 km/h 5.6 km/h 88 % 0 mm
06:45 -1.3 °C -3 °C 1025.3 hPa North 3.4 km/h 9.3 km/h 88 % 0 mm
06:50 -1.3 °C -3 °C 1025.3 hPa NNW 2.9 km/h 5.6 km/h 88 % 0 mm
06:55 -1.3 °C -3.1 °C 1025.3 hPa North 3.7 km/h 9.7 km/h 88 % 0 mm
07:01 -1.3 °C -3.1 °C 1025.6 hPa NNW 5.1 km/h 7.4 km/h 88 % 0 mm
07:06 -1.3 °C -3.1 °C 1025.6 hPa NNW 2.3 km/h 5.6 km/h 88 % 0 mm
07:11 -1.4 °C -3.1 °C 1026 hPa North 2.4 km/h 5.6 km/h 88 % 0 mm
07:16 -1.4 °C -3.1 °C 1026 hPa North 4.5 km/h 9.3 km/h 88 % 0 mm
07:21 -1.4 °C -3.2 °C 1026 hPa North 5.6 km/h 9.3 km/h 88 % 0 mm
07:26 -1.4 °C -3.2 °C 1026 hPa North 3.9 km/h 5.6 km/h 88 % 0 mm
07:31 -1.4 °C -3.2 °C 1026.3 hPa North 1.9 km/h 7.4 km/h 88 % 0 mm
07:36 -1.4 °C -3.2 °C 1026.3 hPa ENE 3.7 km/h 9.3 km/h 88 % 0 mm
07:41 -1.4 °C -3.1 °C 1026.3 hPa North 4.8 km/h 8 km/h 88 % 0 mm
07:46 -1.4 °C -3.1 °C 1026.3 hPa NE 7.1 km/h 16.1 km/h 88 % 0 mm
07:51 -1.3 °C -3.4 °C 1026.6 hPa NNE 6.4 km/h 11.1 km/h 86 % 0 mm
07:56 -1.2 °C -3.3 °C 1026.3 hPa North 4.2 km/h 7.4 km/h 86 % 0 mm
08:01 -1.2 °C -3.4 °C 1026.6 hPa North 8.5 km/h 17.7 km/h 85 % 0 mm
08:06 -1.2 °C -3.5 °C 1026.6 hPa North 7.4 km/h 11.1 km/h 84 % 0 mm
08:11 -1.1 °C -3.4 °C 1026.6 hPa NNW 6.3 km/h 9.3 km/h 84 % 0 mm
08:16 -1.1 °C -3.6 °C 1027 hPa NNE 6.1 km/h 13 km/h 83 % 0 mm
08:21 -1 °C -3.5 °C 1027 hPa NW 5.1 km/h 9.3 km/h 83 % 0 mm
08:26 -0.9 °C -3.6 °C 1027 hPa North 5 km/h 16.7 km/h 82 % 0 mm
08:31 -0.9 °C -3.6 °C 1027 hPa NNW 6.4 km/h 9.7 km/h 82 % 0 mm
08:37 -0.8 °C -3.7 °C 1027 hPa North 6.8 km/h 11.1 km/h 81 % 0 mm
08:42 -0.8 °C -3.6 °C 1027 hPa NNE 5.8 km/h 9.3 km/h 81 % 0 mm
08:45 -0.7 °C -3.6 °C 1027 hPa NNW 8.7 km/h 14.8 km/h 81 % 0 mm
08:50 -0.7 °C -3.7 °C 1027 hPa North 2.6 km/h 5.6 km/h 80 % 0 mm
08:55 -0.6 °C -3.6 °C 1027 hPa NNE 4.5 km/h 6.4 km/h 80 % 0 mm
09:00 -0.5 °C -3.5 °C 1027.3 hPa WNW 3.2 km/h 5.6 km/h 80 % 0 mm
09:05 -0.4 °C -3.4 °C 1027 hPa NW 2.4 km/h 5.6 km/h 80 % 0 mm
09:10 -0.3 °C -3.6 °C 1027 hPa NNW 5.1 km/h 9.3 km/h 79 % 0 mm
09:15 -0.3 °C -3.5 °C 1027.3 hPa North 4 km/h 7.4 km/h 79 % 0 mm
09:20 -0.2 °C -3.4 °C 1027 hPa NW 2.9 km/h 5.6 km/h 79 % 0 mm
09:25 -0.1 °C -3.3 °C 1027.3 hPa NW 2.3 km/h 5.6 km/h 79 % 0 mm
09:30 0.1 °C -3.3 °C 1027.3 hPa NW 4.3 km/h 9.3 km/h 78 % 0 mm
09:35 0.2 °C -3.3 °C 1027 hPa NW 3.9 km/h 7.4 km/h 77 % 0 mm
09:41 0.3 °C -3.2 °C 1027.3 hPa NNW 6.3 km/h 11.1 km/h 77 % 0 mm
09:46 0.4 °C -2.9 °C 1027.3 hPa NNW 6.9 km/h 9.3 km/h 78 % 0 mm
09:51 0.6 °C -2.9 °C 1027.3 hPa NNW 7.2 km/h 13 km/h 77 % 0 mm
09:56 0.7 °C -2.8 °C 1027.3 hPa North 3.9 km/h 7.4 km/h 77 % 0 mm
10:01 0.8 °C -2.7 °C 1027.3 hPa WNW 4.5 km/h 4.8 km/h 77 % 0 mm
10:07 0.9 °C -2.8 °C 1027.3 hPa NNW 6 km/h 7.4 km/h 76 % 0 mm
10:12 1.1 °C -2.7 °C 1027.3 hPa North 3.7 km/h 6.4 km/h 76 % 0 mm
10:17 1.1 °C -2.7 °C 1027.3 hPa NW 6.8 km/h 9.7 km/h 76 % 0 mm
10:22 1.2 °C -2.6 °C 1027.3 hPa WNW 6 km/h 11.3 km/h 76 % 0 mm
10:27 1.2 °C -2.6 °C 1027.3 hPa NW 5.3 km/h 11.1 km/h 76 % 0 mm
10:32 1.3 °C -2.7 °C 1027.3 hPa WNW 5.3 km/h 11.1 km/h 75 % 0 mm
10:37 1.3 °C -2.7 °C 1027.3 hPa NNW 3.2 km/h 13 km/h 75 % 0 mm
10:42 1.3 °C -2.6 °C 1027.3 hPa West 7.2 km/h 11.1 km/h 75 % 0 mm
10:47 1.3 °C -2.6 °C 1027 hPa NW 4.8 km/h 8 km/h 75 % 0 mm
10:52 1.3 °C -2.8 °C 1027 hPa North 3.1 km/h 9.3 km/h 74 % 0 mm
10:57 1.4 °C -2.7 °C 1027 hPa WNW 6.9 km/h 11.1 km/h 74 % 0 mm
11:02 1.4 °C -2.9 °C 1027 hPa West 6.9 km/h 11.1 km/h 73 % 0 mm
11:07 1.5 °C -2.8 °C 1027 hPa NNW 7.6 km/h 13 km/h 73 % 0 mm
11:12 1.6 °C -2.8 °C 1027 hPa NW 4.7 km/h 9.3 km/h 73 % 0 mm
11:17 1.6 °C -2.8 °C 1026.6 hPa NW 5.8 km/h 5.8 km/h 73 % 0 mm
11:23 1.5 °C -2.8 °C 1026.6 hPa NW 5.5 km/h 6.4 km/h 73 % 0 mm
11:28 1.5 °C -3 °C 1026.6 hPa WNW 6 km/h 16.7 km/h 72 % 0 mm
11:33 1.5 °C -2.8 °C 1026.6 hPa NW 6.3 km/h 9.3 km/h 73 % 0 mm
11:38 1.5 °C -2.8 °C 1026.6 hPa NW 6.3 km/h 14.8 km/h 73 % 0 mm
11:43 1.6 °C -2.9 °C 1026.6 hPa WNW 9 km/h 14.8 km/h 72 % 0 mm
11:48 1.6 °C -2.9 °C 1026.6 hPa West 6.3 km/h 11.1 km/h 72 % 0 mm
11:53 1.6 °C -2.9 °C 1026.3 hPa West 6.3 km/h 7.4 km/h 72 % 0 mm
11:58 1.6 °C -2.9 °C 1026.3 hPa NW 5 km/h 13 km/h 72 % 0 mm
12:03 1.6 °C -2.9 °C 1026.3 hPa NNW 5.6 km/h 7.4 km/h 72 % 0 mm
12:08 1.7 °C -3.1 °C 1026.3 hPa NW 7.4 km/h 11.3 km/h 71 % 0 mm
12:13 1.7 °C -2.8 °C 1026.3 hPa WNW 9.2 km/h 16.7 km/h 72 % 0 mm
12:18 1.8 °C -2.9 °C 1026.3 hPa West 3.4 km/h 6.4 km/h 71 % 0 mm
12:23 1.9 °C -2.8 °C 1026 hPa NW 6.3 km/h 9.3 km/h 71 % 0 mm
12:28 2.1 °C -2.6 °C 1026 hPa NW 3.4 km/h 8 km/h 71 % 0 mm
12:33 2.2 °C -2.7 °C 1026 hPa WNW 9.7 km/h 14.8 km/h 70 % 0 mm
12:38 2.3 °C -3 °C 1026 hPa WNW 7.1 km/h 14.8 km/h 68 % 0 mm
12:44 2.4 °C -2.7 °C 1026 hPa WNW 4.3 km/h 9.3 km/h 69 % 0 mm
12:49 2.5 °C -2.8 °C 1025.6 hPa WNW 3.4 km/h 7.4 km/h 68 % 0 mm
12:54 2.6 °C -2.8 °C 1025.6 hPa WNW 6.4 km/h 11.1 km/h 68 % 0 mm
12:59 2.7 °C -2.8 °C 1025.6 hPa WNW 4.2 km/h 8 km/h 67 % 0 mm
13:04 2.7 °C -2.8 °C 1025.6 hPa NW 3.2 km/h 14.5 km/h 67 % 0 mm
13:09 2.8 °C -2.7 °C 1025.6 hPa WNW 3.2 km/h 11.3 km/h 67 % 0 mm
13:14 2.8 °C -2.9 °C 1025.6 hPa WNW 4.8 km/h 12.9 km/h 66 % 0 mm
13:19 2.8 °C -3.1 °C 1025.6 hPa WNW 9.7 km/h 12.9 km/h 65 % 0 mm
13:24 2.8 °C -3.3 °C 1025.6 hPa WNW 9.7 km/h 16.1 km/h 64 % 0 mm
13:29 2.9 °C -3.3 °C 1025.6 hPa WNW 4.8 km/h 14.5 km/h 64 % 0 mm
13:34 2.9 °C -3 °C 1025.6 hPa WNW 4.8 km/h 16.1 km/h 65 % 0 mm
13:39 3.1 °C -2.9 °C 1025.6 hPa West 4.8 km/h 11.3 km/h 65 % 0 mm
13:44 3.2 °C -3 °C 1025.6 hPa WSW 5.5 km/h 14.8 km/h 64 % 0 mm
13:49 3.2 °C -2.9 °C 1025.6 hPa WSW 4.8 km/h 14.5 km/h 64 % 0 mm
13:54 3.4 °C -2.6 °C 1025.6 hPa WSW 3.9 km/h 11.3 km/h 65 % 0 mm
13:59 3.4 °C -2.7 °C 1025.6 hPa WNW 6.9 km/h 11.1 km/h 64 % 0 mm
14:04 3.4 °C -2.9 °C 1025.6 hPa West 6.4 km/h 11.1 km/h 63 % 0 mm
14:09 3.4 °C -2.7 °C 1025.6 hPa WNW 2.4 km/h 5.6 km/h 64 % 0 mm
14:14 3.4 °C -2.9 °C 1025.3 hPa WNW 7.2 km/h 12.9 km/h 63 % 0 mm
14:19 3.4 °C -3.2 °C 1025.3 hPa NW 8.7 km/h 12.9 km/h 62 % 0 mm
14:24 3.4 °C -3.2 °C 1025.3 hPa WNW 2.6 km/h 3.7 km/h 62 % 0 mm
14:29 3.3 °C -3.3 °C 1025.3 hPa WNW 4 km/h 9.3 km/h 62 % 0 mm
14:34 3.3 °C -3.3 °C 1025.3 hPa WSW 6.4 km/h 11.3 km/h 62 % 0 mm
14:40 3.2 °C -3.4 °C 1025.3 hPa WNW 7.6 km/h 9.7 km/h 62 % 0 mm
14:45 3.1 °C -3.5 °C 1025.6 hPa NW 6.1 km/h 11.3 km/h 62 % 0 mm
14:50 3 °C -3.4 °C 1025.6 hPa NW 5.1 km/h 6.4 km/h 63 % 0 mm
14:55 2.9 °C -3.4 °C 1025.6 hPa WNW 5.1 km/h 6.4 km/h 63 % 0 mm
15:00 2.9 °C -3.4 °C 1025.6 hPa West 3.9 km/h 8 km/h 63 % 0 mm
15:05 2.9 °C -3.3 °C 1025.6 hPa NW 2.3 km/h 5.6 km/h 64 % 0 mm
15:10 2.8 °C -3.3 °C 1025.6 hPa NW 7.1 km/h 9.7 km/h 64 % 0 mm
15:15 2.8 °C -3.3 °C 1025.6 hPa West 1.8 km/h 5.6 km/h 64 % 0 mm
15:20 2.8 °C -3.4 °C 1025.6 hPa West 0.8 km/h 5.6 km/h 64 % 0 mm
15:25 2.8 °C -3.4 °C 1025.6 hPa WSW 7.2 km/h 9.3 km/h 64 % 0 mm
15:30 2.8 °C -3.4 °C 1026 hPa NW 6.9 km/h 9.7 km/h 64 % 0 mm
15:35 2.8 °C -3.3 °C 1026 hPa WSW 3.1 km/h 9.7 km/h 64 % 0 mm
15:40 2.8 °C -3.3 °C 1026 hPa WNW 3.9 km/h 7.4 km/h 64 % 0 mm
15:45 2.8 °C -3.3 °C 1026 hPa WNW 1.3 km/h 6.4 km/h 64 % 0 mm
15:50 2.8 °C -3.3 °C 1026 hPa West 2.3 km/h 9.7 km/h 64 % 0 mm
15:55 2.8 °C -3.3 °C 1026 hPa WNW 2.1 km/h 5.6 km/h 64 % 0 mm
16:00 2.8 °C -3.3 °C 1026 hPa WNW 0.2 km/h 1.9 km/h 64 % 0 mm
16:05 2.8 °C -3.2 °C 1026 hPa WNW 2.3 km/h 4.8 km/h 65 % 0 mm
16:10 2.8 °C -3.2 °C 1026 hPa NW 2.4 km/h 5.6 km/h 65 % 0 mm
16:15 2.8 °C -3.4 °C 1026 hPa WNW 5 km/h 5.6 km/h 64 % 0 mm
16:21 2.7 °C -3.6 °C 1026 hPa NNW 4.2 km/h 5.6 km/h 63 % 0 mm
16:26 2.7 °C -3.4 °C 1026 hPa NW 0.2 km/h 1.9 km/h 64 % 0 mm
16:31 2.7 °C -3.2 °C 1026 hPa NW 1.1 km/h 6.4 km/h 65 % 0 mm
16:36 2.7 °C -3.4 °C 1026.3 hPa NW 2.1 km/h 5.6 km/h 64 % 0 mm
16:41 2.6 °C -3.5 °C 1026.3 hPa WNW 0.2 km/h 5.6 km/h 64 % 0 mm
16:46 2.6 °C -3.6 °C 1026.3 hPa WNW 0.3 km/h 5.6 km/h 64 % 0 mm
16:51 2.5 °C -3.6 °C 1026.3 hPa Calm   5.6 km/h 64 % 0 mm
16:56 2.4 °C -3.7 °C 1026.3 hPa Calm   1.9 km/h 64 % 0 mm
17:01 2.3 °C -3.6 °C 1026.3 hPa Calm   1.9 km/h 65 % 0 mm
17:06 2.2 °C -3.7 °C 1026.3 hPa NW 0.8 km/h 1.9 km/h 65 % 0 mm
17:11 2.1 °C -3.7 °C 1026.3 hPa NW 0.6 km/h 3.2 km/h 66 % 0 mm
17:16 1.9 °C -3.6 °C 1026.3 hPa NW 0.8 km/h 3.7 km/h 67 % 0 mm
17:21 1.8 °C -3.4 °C 1026.6 hPa Calm   1.9 km/h 68 % 0 mm
17:26 1.7 °C -3.6 °C 1026.6 hPa Calm     68 % 0 mm
17:32 1.6 °C -3.5 °C 1026.6 hPa NW 0.6 km/h 3.7 km/h 69 % 0 mm
17:37 1.3 °C -3.6 °C 1026.6 hPa NW 1.4 km/h 3.7 km/h 70 % 0 mm
17:42 1.1 °C -3.6 °C 1027 hPa NW 0.6 km/h 1.9 km/h 71 % 0 mm
17:47 0.9 °C -3.7 °C 1027 hPa NW 0.3 km/h 1.9 km/h 71 % 0 mm
17:52 0.7 °C -3.8 °C 1027 hPa NW 0.3 km/h 3.7 km/h 72 % 0 mm
17:57 0.6 °C -3.7 °C 1027 hPa NW 2.1 km/h 3.7 km/h 73 % 0 mm
18:02 0.5 °C -3.8 °C 1027 hPa NW 0.5 km/h 1.6 km/h 73 % 0 mm
18:07 0.4 °C -3.7 °C 1027 hPa NW 0.6 km/h 1.9 km/h 74 % 0 mm
18:12 0.3 °C -3.6 °C 1027.3 hPa NW 0.3 km/h 1.9 km/h 75 % 0 mm
18:17 0.2 °C -3.6 °C 1027 hPa NW 2.1 km/h 3.7 km/h 76 % 0 mm
18:22 0 °C -3.7 °C 1027 hPa NW 0.5 km/h 1.9 km/h 76 % 0 mm
18:27 -0.1 °C -3.8 °C 1027 hPa NW 0.5 km/h 1.9 km/h 76 % 0 mm
18:32 -0.2 °C -3.8 °C 1027.3 hPa NW 1.9 km/h 3.7 km/h 77 % 0 mm
18:38 -0.3 °C -3.9 °C 1027.3 hPa NW 2.3 km/h 5.6 km/h 77 % 0 mm
18:43 -0.4 °C -3.8 °C 1027.3 hPa Calm   1.9 km/h 78 % 0 mm
18:48 -0.5 °C -3.9 °C 1027.7 hPa NW 1.8 km/h 3.7 km/h 78 % 0 mm
18:53 -0.6 °C -3.9 °C 1027.3 hPa NW 3.2 km/h 4.8 km/h 78 % 0 mm
18:58 -0.7 °C -3.8 °C 1027.3 hPa WNW 1.8 km/h 3.7 km/h 79 % 0 mm
19:03 -0.7 °C -3.9 °C 1027.3 hPa WNW 2.6 km/h 5.6 km/h 79 % 0 mm
19:08 -0.8 °C -3.9 °C 1027.3 hPa WNW 1.4 km/h 3.7 km/h 79 % 0 mm
19:13 -0.8 °C -4 °C 1027.3 hPa WNW 1 km/h 3.7 km/h 79 % 0 mm
19:18 -0.9 °C -3.9 °C 1027.7 hPa WNW 0.3 km/h 5.6 km/h 80 % 0 mm
19:23 -0.9 °C -3.9 °C 1027.7 hPa WNW 0.2 km/h 1.9 km/h 80 % 0 mm
19:28 -0.9 °C -3.9 °C 1027.3 hPa WNW 0.8 km/h 3.7 km/h 80 % 0 mm
19:33 -1 °C -4 °C 1027.3 hPa WNW 0.3 km/h 1.9 km/h 80 % 0 mm
19:38 -1.1 °C -4.1 °C 1027.3 hPa WNW 2.3 km/h 3.7 km/h 80 % 0 mm
19:43 -1.1 °C -4.1 °C 1027.3 hPa WNW 0.6 km/h 3.7 km/h 80 % 0 mm
19:48 -1.1 °C -4.1 °C 1027.3 hPa WNW 1.6 km/h 3.7 km/h 80 % 0 mm
19:54 -1.2 °C -4 °C 1027.3 hPa Calm   1.9 km/h 81 % 0 mm
19:59 -1.2 °C -3.9 °C 1027.3 hPa WNW 1.4 km/h 5.6 km/h 82 % 0 mm
20:04 -1.2 °C -3.9 °C 1027.3 hPa WNW 1.8 km/h 3.7 km/h 82 % 0 mm
20:09 -1.3 °C -3.9 °C 1027.7 hPa WNW 3.7 km/h 5.6 km/h 82 % 0 mm
20:14 -1.2 °C -3.7 °C 1027.7 hPa West 1.8 km/h 1.9 km/h 83 % 0 mm
20:19 -1.2 °C -3.7 °C 1028 hPa West 1.6 km/h 3.7 km/h 83 % 0 mm
20:24 -1.2 °C -3.7 °C 1028 hPa West 1.6 km/h 4.8 km/h 83 % 0 mm
20:29 -1.2 °C -3.7 °C 1028 hPa West 1.6 km/h 6.4 km/h 83 % 0 mm
20:34 -1.1 °C -3.6 °C 1028 hPa West 1.6 km/h 4.8 km/h 83 % 0 mm
20:39 -1.1 °C -3.6 °C 1028.3 hPa West 3.2 km/h 6.4 km/h 83 % 0 mm
20:44 -1 °C -3.6 °C 1028.3 hPa West 3.2 km/h 6.4 km/h 83 % 0 mm
20:49 -0.9 °C -3.4 °C 1028.7 hPa WNW 1.6 km/h 4.8 km/h 83 % 0 mm
20:54 -0.9 °C -3.6 °C 1028.3 hPa WNW 0.8 km/h 5.6 km/h 82 % 0 mm
20:59 -0.8 °C -3.5 °C 1028.3 hPa WNW 0.8 km/h 1.6 km/h 82 % 0 mm
21:04 -0.8 °C -3.6 °C 1028.3 hPa West 0.8 km/h 3.7 km/h 81 % 0 mm
21:09 -0.7 °C -3.6 °C 1028 hPa West 0.5 km/h 5.6 km/h 81 % 0 mm
21:14 -0.7 °C -3.6 °C 1028 hPa Calm   3.7 km/h 81 % 0 mm
21:19 -0.7 °C -3.7 °C 1028.3 hPa West 1 km/h 3.7 km/h 80 % 0 mm
21:24 -0.8 °C -3.8 °C 1028.3 hPa Calm   1.9 km/h 80 % 0 mm
21:29 -0.8 °C -3.7 °C 1028.3 hPa West 1 km/h 1.9 km/h 81 % 0 mm
21:34 -0.9 °C -3.7 °C 1028.3 hPa Calm     81 % 0 mm
21:39 -1 °C -3.8 °C 1028 hPa West 2.1 km/h 3.7 km/h 81 % 0 mm
21:44 -1.1 °C -3.9 °C 1028.3 hPa West 0.2 km/h 3.7 km/h 81 % 0 mm
21:49 -1.2 °C -3.8 °C 1028.3 hPa West 0.5 km/h 1.9 km/h 82 % 0 mm
21:54 -1.3 °C -4 °C 1028.3 hPa West 1.4 km/h 5.6 km/h 82 % 0 mm
21:59 -1.4 °C -3.9 °C 1028.3 hPa West 0.6 km/h 3.7 km/h 83 % 0 mm
22:04 -1.4 °C -3.9 °C 1028.3 hPa Calm   3.7 km/h 83 % 0 mm
22:10 -1.4 °C -3.9 °C 1028.3 hPa West 0.3 km/h 1.6 km/h 83 % 0 mm
22:15 -1.5 °C -4 °C 1028.3 hPa West 0.3 km/h 1.9 km/h 83 % 0 mm
22:20 -1.5 °C -3.8 °C 1028.7 hPa West 0.2 km/h 1.9 km/h 84 % 0 mm
22:25 -1.6 °C -3.9 °C 1028.7 hPa West 2.7 km/h 5.6 km/h 84 % 0 mm
22:30 -1.6 °C -3.9 °C 1028.7 hPa West 0.3 km/h 3.7 km/h 84 % 0 mm
22:35 -1.6 °C -3.9 °C 1028.7 hPa West 0.2 km/h 1.9 km/h 84 % 0 mm
22:40 -1.6 °C -3.8 °C 1028.3 hPa Calm     85 % 0 mm
22:45 -1.7 °C -3.8 °C 1028.7 hPa Calm     85 % 0 mm
22:46 -1.7 °C -3.8 °C 1028.7 hPa Calm     85 % 0 mm
22:51 -1.8 °C -4.1 °C 1028.7 hPa West 2.1 km/h 3.7 km/h 84 % 0 mm
22:56 -1.9 °C -4.1 °C 1029 hPa Calm     85 % 0 mm
23:01 -1.9 °C -4.3 °C 1028.7 hPa Calm     84 % 0 mm
23:06 -2.1 °C -4.4 °C 1028.7 hPa Calm     84 % 0 mm
23:11 -2.2 °C -4.5 °C 1028.7 hPa Calm     84 % 0 mm
23:16 -2.2 °C -4.6 °C 1029 hPa Calm   1.9 km/h 84 % 0 mm
23:21 -2.3 °C -4.5 °C 1028.7 hPa Calm   3.7 km/h 85 % 0 mm
23:26 -2.4 °C -4.4 °C 1029 hPa NNW 0.2 km/h 1.6 km/h 86 % 0 mm
23:32 -2.4 °C -4.4 °C 1029 hPa NNW 0.2 km/h 1.9 km/h 86 % 0 mm
23:37 -2.4 °C -4.4 °C 1029 hPa Calm     86 % 0 mm
23:42 -2.5 °C -4.4 °C 1028.7 hPa Calm   1.9 km/h 87 % 0 mm
23:47 -2.5 °C -4.4 °C 1028.7 hPa Calm     87 % 0 mm
23:52 -2.6 °C -4.4 °C 1028.7 hPa Calm     87 % 0 mm
23:57 -2.6 °C -4.5 °C 1029 hPa Calm     87 % 0 mm
Crab Meadow Weather
Compliments of Weather Underground - 3 mb

Script developed by  Jim McMurry - jmcmurry@mwt.net Adapted for the template by  Wim van der Kuil - Leuven-Template.eu

Recycling: In 2006, a record 53.4 percent of the paper consumed in the U.S. was recovered for recycling. Americans recovered an extraordinary 53.5 million tons, averaging 360 pounds per person.